Time;durP1;ratioP1;P1;durP2;ratioP2;P2;SDS_P1;SDS_P2;PMS_P1;PMS_P2;Temp;Humidity;BMP_temperature;BMP_pressure;BME280_temperature;BME280_humidity;BME280_pressure;Samples;Min_cycle;Max_cycle;Signal;HPM_P1;HPM_P2
2022/02/12 00:02:04;;;;;;;5.25;1.90;;;;;;;0.87;81.24;102626.34;5081465;28;20027;-24
2022/02/12 00:04:29;;;;;;;4.13;1.58;;;;;;;0.85;81.11;102625.34;5077461;28;20032;-24
2022/02/12 00:06:55;;;;;;;5.72;2.35;;;;;;;0.81;81.19;102630.25;5079229;28;20406;-23
2022/02/12 00:09:21;;;;;;;3.13;1.92;;;;;;;0.80;81.44;102641.47;5082588;28;20028;-20
2022/02/12 00:11:46;;;;;;;5.80;1.60;;;;;;;0.78;81.46;102641.38;5080060;28;20031;-24
2022/02/12 00:14:11;;;;;;;3.22;1.55;;;;;;;0.75;81.16;102630.78;5074675;28;20033;-24
2022/02/12 00:16:37;;;;;;;3.67;1.60;;;;;;;0.73;81.26;102630.66;5081808;28;20032;-24
2022/02/12 00:19:02;;;;;;;4.22;2.08;;;;;;;0.70;81.10;102629.59;5074034;28;20047;-24
2022/02/12 00:21:27;;;;;;;2.65;1.73;;;;;;;0.67;81.28;102627.72;5079537;28;20505;-23
2022/02/12 00:23:53;;;;;;;6.10;2.15;;;;;;;0.66;81.27;102632.81;5077394;28;20395;-23
2022/02/12 00:26:20;;;;;;;3.45;2.17;;;;;;;0.62;81.26;102637.78;5077713;28;20044;-24
2022/02/12 00:28:45;;;;;;;5.75;1.92;;;;;;;0.60;81.30;102644.56;5077619;28;20076;-24
2022/02/12 00:31:10;;;;;;;3.90;2.08;;;;;;;0.60;80.97;102641.97;5069284;28;20029;-24
2022/02/12 00:33:36;;;;;;;4.18;1.63;;;;;;;0.58;81.13;102640.09;5073243;28;20031;-22
2022/02/12 00:36:02;;;;;;;4.85;1.83;;;;;;;0.55;81.06;102639.88;5081945;28;20655;-24
2022/02/12 00:38:27;;;;;;;2.53;2.05;;;;;;;0.53;81.15;102636.31;5079464;28;20099;-27
2022/02/12 00:40:53;;;;;;;5.18;2.03;;;;;;;0.49;80.93;102643.91;5075238;28;20157;-26
2022/02/12 00:43:18;;;;;;;2.85;1.77;;;;;;;0.47;81.27;102642.00;5080715;28;20474;-25
2022/02/12 00:45:46;;;;;;;2.97;2.20;;;;;;;0.45;81.24;102644.50;5078076;28;20028;-26
2022/02/12 00:48:12;;;;;;;3.75;1.67;;;;;;;0.43;80.87;102645.22;5083298;28;20024;-24
2022/02/12 00:50:37;;;;;;;8.00;2.30;;;;;;;0.40;80.95;102645.88;5081358;28;20100;-26
2022/02/12 00:53:02;;;;;;;2.45;2.10;;;;;;;0.37;80.96;102638.81;5089538;28;20474;-25
2022/02/12 00:55:28;;;;;;;4.60;1.88;;;;;;;0.35;81.03;102640.41;5076557;28;20093;-26
2022/02/12 00:57:53;;;;;;;4.65;1.85;;;;;;;0.33;80.95;102636.81;5072046;28;20077;-25
2022/02/12 01:00:18;;;;;;;4.35;2.00;;;;;;;0.30;81.02;102646.09;5074182;28;20055;-25
2022/02/12 01:02:44;;;;;;;4.63;1.95;;;;;;;0.28;81.07;102645.09;5080656;28;20024;-24
2022/02/12 01:05:09;;;;;;;2.38;1.52;;;;;;;0.27;81.13;102669.25;5081498;28;20032;-25
2022/02/12 01:07:34;;;;;;;1.83;1.40;;;;;;;0.23;81.16;102657.75;5084103;28;20103;-25
2022/02/12 01:10:00;;;;;;;4.85;1.90;;;;;;;0.22;80.86;102651.69;5079720;28;20057;-24
2022/02/12 01:12:25;;;;;;;2.70;1.90;;;;;;;0.21;80.93;102646.41;5076788;28;20043;-25
2022/02/12 01:14:50;;;;;;;6.00;1.90;;;;;;;0.19;81.41;102653.16;5075863;28;20061;-26
2022/02/12 01:17:16;;;;;;;4.97;2.72;;;;;;;0.17;80.99;102666.03;5077503;28;20060;-25
2022/02/12 01:19:41;;;;;;;6.15;2.17;;;;;;;0.15;81.08;102674.53;5078790;28;20086;-25
2022/02/12 01:22:07;;;;;;;3.20;1.63;;;;;;;0.11;80.99;102674.31;5079119;28;20085;-26
2022/02/12 01:24:34;;;;;;;1.95;1.60;;;;;;;0.10;80.64;102667.34;5076834;28;20032;-24
2022/02/12 01:26:59;;;;;;;5.30;1.88;;;;;;;0.08;81.29;102673.25;5074635;28;20054;-25
2022/02/12 01:29:25;;;;;;;2.70;1.45;;;;;;;0.06;80.76;102664.44;5080559;28;20036;-25
2022/02/12 01:31:50;;;;;;;6.32;2.28;;;;;;;0.03;80.97;102672.91;5080263;28;20028;-24
2022/02/12 01:34:15;;;;;;;3.95;2.05;;;;;;;0.02;81.12;102668.53;5077150;28;20032;-26
2022/02/12 01:36:41;;;;;;;2.15;1.80;;;;;;;-0.01;80.98;102664.06;5079514;28;20024;-25
2022/02/12 01:39:06;;;;;;;6.55;3.00;;;;;;;-0.02;81.13;102666.53;5076859;28;20059;-25
2022/02/12 01:41:32;;;;;;;1.92;1.65;;;;;;;-0.06;81.24;102665.44;5073353;28;20459;-24
2022/02/12 01:44:06;;;;;;;2.85;1.92;;;;;;;-0.07;80.95;102670.53;5077275;28;20050;-24
2022/02/12 01:46:31;;;;;;;3.53;1.67;;;;;;;-0.10;81.19;102665.13;5075780;28;20028;-26
2022/02/12 01:48:56;;;;;;;5.75;2.15;;;;;;;-0.11;80.85;102665.94;5078648;28;20032;-26
2022/02/12 01:51:22;;;;;;;2.08;1.75;;;;;;;-0.15;81.12;102662.22;5077842;28;20382;-25
2022/02/12 01:53:47;;;;;;;2.58;1.67;;;;;;;-0.15;81.22;102664.81;5076986;28;20387;-24
2022/02/12 01:56:13;;;;;;;3.58;1.73;;;;;;;-0.17;80.97;102672.50;5080399;28;20032;-26
2022/02/12 01:58:38;;;;;;;4.10;2.00;;;;;;;-0.20;81.02;102667.09;5077610;28;20040;-26
2022/02/12 02:01:04;;;;;;;7.60;2.28;;;;;;;-0.23;80.74;102666.91;5081618;28;20442;-26
2022/02/12 02:03:29;;;;;;;3.28;1.63;;;;;;;-0.26;80.77;102656.31;5081590;28;20036;-25
2022/02/12 02:05:55;;;;;;;3.60;1.60;;;;;;;-0.25;80.96;102663.28;5083885;28;20036;-25
2022/02/12 02:08:21;;;;;;;5.65;2.08;;;;;;;-0.29;81.02;102656.09;5080529;28;20039;-25
2022/02/12 02:10:46;;;;;;;2.08;1.88;;;;;;;-0.30;80.48;102657.78;5082214;28;20028;-25
2022/02/12 02:13:26;;;;;;;4.55;2.47;;;;;;;-0.32;80.59;102650.72;5079562;28;20036;-26
2022/02/12 02:15:51;;;;;;;3.33;2.00;;;;;;;-0.37;80.50;102647.78;5092764;28;20047;-26
2022/02/12 02:18:17;;;;;;;5.60;2.15;;;;;;;-0.38;80.95;102646.00;5079264;28;20482;-26
2022/02/12 02:20:42;;;;;;;2.60;1.73;;;;;;;-0.40;80.59;102643.31;5081390;28;20027;-25
2022/02/12 02:23:08;;;;;;;3.35;2.10;;;;;;;-0.44;80.76;102641.31;5081940;28;20020;-26
2022/02/12 02:25:34;;;;;;;2.75;1.83;;;;;;;-0.46;80.93;102637.72;5080528;28;20024;-25
2022/02/12 02:27:59;;;;;;;2.80;2.00;;;;;;;-0.45;80.90;102641.19;5079481;28;20025;-24
2022/02/12 02:30:27;;;;;;;5.50;2.28;;;;;;;-0.49;81.20;102629.72;5076613;28;20027;-25
2022/02/12 02:32:52;;;;;;;3.38;1.58;;;;;;;-0.52;80.66;102626.94;5080324;28;20020;-25
2022/02/12 02:35:19;;;;;;;4.82;2.75;;;;;;;-0.52;80.58;102621.75;5077654;28;20043;-26
2022/02/12 02:37:44;;;;;;;2.45;2.25;;;;;;;-0.55;80.91;102624.13;5100874;28;20036;-24
2022/02/12 02:40:15;;;;;;;4.35;2.08;;;;;;;-0.56;81.18;102628.38;5081179;28;20021;-26
2022/02/12 02:42:42;;;;;;;3.00;2.13;;;;;;;-0.58;81.10;102626.50;5077763;28;20032;-25
2022/02/12 02:45:09;;;;;;;4.65;2.22;;;;;;;-0.63;80.46;102614.91;5080363;28;20534;-25
2022/02/12 02:47:40;;;;;;;3.00;2.65;;;;;;;-0.63;81.03;102622.69;5084758;28;20382;-26
2022/02/12 02:55:59;;;;;;;3.53;2.17;;;;;;;-0.66;80.93;102619.09;5080397;28;20474;-24
2022/02/12 02:58:20;;;;;;;4.28;2.13;;;;;;;-0.73;80.57;102632.41;5084076;28;20129;-24
2022/02/12 03:00:46;;;;;;;4.80;2.78;;;;;;;-0.76;81.31;102637.41;5079917;28;20057;-25
2022/02/12 03:03:11;;;;;;;3.53;2.10;;;;;;;-0.77;81.15;102638.19;5081091;28;20028;-25
2022/02/12 03:05:37;;;;;;;5.55;3.00;;;;;;;-0.78;80.88;102639.91;5082680;28;20032;-26
2022/02/12 03:08:02;;;;;;;3.47;2.22;;;;;;;-0.80;80.74;102638.00;5074743;28;20555;-25
2022/02/12 03:10:27;;;;;;;3.90;2.72;;;;;;;-0.83;80.63;102637.78;5077162;28;20020;-25
2022/02/12 03:12:53;;;;;;;5.60;3.08;;;;;;;-0.84;80.55;102654.13;5079124;28;20082;-23
2022/02/12 03:15:18;;;;;;;5.88;2.80;;;;;;;-0.87;80.46;102646.13;5084499;28;20032;-25
2022/02/12 03:17:44;;;;;;;4.15;2.22;;;;;;;-0.91;81.13;102645.91;5075846;28;20055;-26
2022/02/12 03:20:10;;;;;;;5.60;2.38;;;;;;;-0.91;80.99;102638.13;5076055;28;20123;-25
2022/02/12 03:22:35;;;;;;;5.28;2.15;;;;;;;-0.93;80.93;102634.53;5072873;28;20056;-26
2022/02/12 03:25:00;;;;;;;5.35;2.38;;;;;;;-0.96;80.96;102631.75;5074178;28;20452;-25
2022/02/12 03:27:26;;;;;;;3.13;2.15;;;;;;;-0.97;80.70;102636.81;5077164;28;20028;-23
2022/02/12 03:29:51;;;;;;;4.10;2.20;;;;;;;-0.98;80.76;102635.00;5077068;28;20028;-25
2022/02/12 03:32:16;;;;;;;3.97;2.97;;;;;;;-1.00;80.71;102624.53;5082236;28;20051;-24
2022/02/12 03:34:42;;;;;;;4.18;2.47;;;;;;;-1.02;80.95;102626.13;5079483;28;20056;-26
2022/02/12 03:37:07;;;;;;;4.88;2.20;;;;;;;-1.02;80.89;102635.56;5079356;28;20084;-25
2022/02/12 03:39:32;;;;;;;5.53;3.80;;;;;;;-1.06;81.09;102626.69;5078268;28;20489;-26
2022/02/12 03:41:58;;;;;;;4.22;2.33;;;;;;;-1.08;81.20;102626.59;5078270;28;20062;-25
2022/02/12 03:44:24;;;;;;;5.03;2.70;;;;;;;-1.09;80.58;102626.47;5078380;28;20490;-26
2022/02/12 03:46:49;;;;;;;4.15;2.28;;;;;;;-1.10;80.65;102625.56;5077999;28;20073;-26
2022/02/12 03:49:14;;;;;;;3.33;2.38;;;;;;;-1.13;80.66;102634.81;5080395;28;20513;-26
2022/02/12 03:51:40;;;;;;;4.45;2.97;;;;;;;-1.13;81.12;102629.66;5076603;28;20081;-26
2022/02/12 03:54:05;;;;;;;3.47;2.78;;;;;;;-1.16;80.90;102628.63;5073950;28;20971;-24
2022/02/12 03:56:30;;;;;;;4.07;2.58;;;;;;;-1.19;80.37;102628.44;5080077;28;20036;-25
2022/02/12 03:58:56;;;;;;;3.88;2.75;;;;;;;-1.20;80.66;102625.72;5071070;28;20028;-26
2022/02/12 04:01:21;;;;;;;5.47;3.10;;;;;;;-1.22;80.72;102610.09;5077878;28;20035;-25
2022/02/12 04:03:47;;;;;;;4.38;2.72;;;;;;;-1.23;81.18;102612.56;5078759;28;20118;-25
2022/02/12 04:06:12;;;;;;;4.45;2.53;;;;;;;-1.25;80.40;102615.03;5079282;28;20020;-23
2022/02/12 04:08:38;;;;;;;5.57;2.70;;;;;;;-1.29;80.93;102607.84;5077505;28;20438;-24
2022/02/12 04:11:04;;;;;;;4.75;2.28;;;;;;;-1.28;80.75;102599.28;5073759;28;20051;-24
2022/02/12 04:13:32;;;;;;;3.78;2.55;;;;;;;-1.30;80.92;102600.88;5076515;28;20024;-23
2022/02/12 04:15:57;;;;;;;5.70;3.25;;;;;;;-1.31;80.90;102601.66;5077793;28;20073;-23
2022/02/12 04:18:23;;;;;;;4.10;2.97;;;;;;;-1.33;81.18;102600.66;5079137;28;20024;-23
2022/02/12 04:20:48;;;;;;;4.78;2.50;;;;;;;-1.34;80.51;102601.41;5072838;28;20093;-24
2022/02/12 04:23:14;;;;;;;3.13;2.58;;;;;;;-1.37;81.12;102603.81;5077596;28;20033;-23
2022/02/12 04:25:39;;;;;;;5.93;2.78;;;;;;;-1.38;80.91;102608.09;5080423;28;20326;-25
2022/02/12 04:28:09;;;;;;;4.75;2.75;;;;;;;-1.39;80.80;102611.47;5076892;28;20053;-23
2022/02/12 04:30:38;;;;;;;3.08;2.35;;;;;;;-1.40;80.84;102606.19;5074035;28;20045;-24
2022/02/12 04:33:04;;;;;;;3.75;2.53;;;;;;;-1.44;80.75;102598.19;5078050;28;20036;-23
2022/02/12 04:35:29;;;;;;;3.80;2.30;;;;;;;-1.46;80.94;102593.69;5076322;28;20024;-23
2022/02/12 04:37:55;;;;;;;3.97;2.60;;;;;;;-1.47;80.95;102610.91;5081332;28;20020;-23
2022/02/12 04:40:20;;;;;;;6.55;2.88;;;;;;;-1.47;80.72;102617.78;5074002;28;20482;-24
2022/02/12 04:42:47;;;;;;;5.55;2.72;;;;;;;-1.49;80.75;102622.84;5078407;28;20048;-24
2022/02/12 04:45:12;;;;;;;6.03;3.45;;;;;;;-1.49;80.67;102627.13;5078976;28;20163;-24
2022/02/12 04:47:40;;;;;;;6.25;2.90;;;;;;;-1.52;80.32;102620.03;5076646;28;20020;-24
2022/02/12 04:50:05;;;;;;;6.53;2.72;;;;;;;-1.55;80.40;102618.16;5074896;28;20498;-25
2022/02/12 04:52:31;;;;;;;6.35;2.40;;;;;;;-1.56;80.93;102607.69;5077667;28;20181;-22
2022/02/12 04:54:56;;;;;;;3.83;2.30;;;;;;;-1.57;80.50;102611.06;5077665;28;20123;-21
2022/02/12 04:57:21;;;;;;;3.55;2.13;;;;;;;-1.60;81.03;102614.31;5074850;28;20032;-25
2022/02/12 04:59:47;;;;;;;3.20;2.22;;;;;;;-1.59;80.26;102602.28;5075747;28;20112;-24
2022/02/12 05:02:12;;;;;;;2.75;2.38;;;;;;;-1.61;80.39;102619.38;5079904;28;20168;-24
2022/02/12 05:04:38;;;;;;;5.40;2.50;;;;;;;-1.63;80.24;102620.97;5077441;28;20032;-24
2022/02/12 05:07:03;;;;;;;3.45;2.47;;;;;;;-1.64;80.69;102608.81;5079308;28;20021;-24
2022/02/12 05:09:31;;;;;;;3.70;2.42;;;;;;;-1.68;81.02;102597.31;5078895;28;20028;-24
2022/02/12 05:11:56;;;;;;;3.97;2.50;;;;;;;-1.69;80.95;102603.31;5073653;28;20651;-25
2022/02/12 05:14:22;;;;;;;3.75;2.20;;;;;;;-1.73;80.60;102594.41;5076808;28;20059;-24
2022/02/12 05:16:47;;;;;;;5.18;2.50;;;;;;;-1.72;81.06;102601.41;5074088;28;20024;-24
2022/02/12 05:19:12;;;;;;;5.22;2.45;;;;;;;-1.73;80.92;102602.16;5079236;28;20028;-24
2022/02/12 05:21:40;;;;;;;3.17;2.55;;;;;;;-1.77;80.82;102602.72;5079984;28;20054;-24
2022/02/12 05:24:05;;;;;;;3.28;2.60;;;;;;;-1.77;80.30;102594.97;5074546;28;20029;-23
2022/02/12 05:26:30;;;;;;;3.85;2.47;;;;;;;-1.81;81.04;102585.19;5078994;28;20387;-24
2022/02/12 05:28:56;;;;;;;5.07;2.83;;;;;;;-1.80;80.57;102589.59;5079841;28;20032;-24
2022/02/12 05:31:21;;;;;;;5.15;2.88;;;;;;;-1.81;80.98;102587.78;5078460;28;20023;-24
2022/02/12 05:33:47;;;;;;;6.43;2.80;;;;;;;-1.82;80.71;102594.66;5082756;28;20366;-25
2022/02/12 05:36:13;;;;;;;5.50;2.67;;;;;;;-1.84;80.27;102590.13;5083329;28;20043;-24
2022/02/12 05:38:39;;;;;;;4.95;2.88;;;;;;;-1.85;80.74;102590.94;5081282;28;20027;-24
2022/02/12 05:41:09;;;;;;;3.30;2.67;;;;;;;-1.88;80.63;102599.38;5077273;28;20086;-25
2022/02/12 05:43:34;;;;;;;5.90;2.72;;;;;;;-1.89;80.70;102597.56;5080361;28;20490;-25
2022/02/12 05:46:00;;;;;;;8.93;3.08;;;;;;;-1.92;80.81;102599.94;5078399;28;20337;-24
2022/02/12 05:48:26;;;;;;;6.88;3.15;;;;;;;-1.92;80.61;102602.53;5079233;28;20028;-24
2022/02/12 05:50:51;;;;;;;6.03;3.17;;;;;;;-1.92;80.33;102601.59;5079088;28;20078;-25
2022/02/12 05:53:17;;;;;;;5.05;2.90;;;;;;;-1.94;81.02;102605.00;5079340;28;20101;-25
2022/02/12 05:55:42;;;;;;;6.47;3.10;;;;;;;-2.00;80.50;102593.31;5083895;28;20107;-24
2022/02/12 05:58:08;;;;;;;4.72;3.20;;;;;;;-1.97;80.96;102602.16;5095275;28;20416;-24
2022/02/12 06:00:33;;;;;;;6.60;3.00;;;;;;;-2.00;80.59;102599.34;5076523;28;20621;-24
2022/02/12 06:02:59;;;;;;;7.82;3.28;;;;;;;-2.03;80.83;102591.41;5080701;28;20035;-23
2022/02/12 06:05:24;;;;;;;6.03;3.13;;;;;;;-2.04;80.65;102592.16;5079465;28;20024;-25
2022/02/12 06:07:50;;;;;;;7.30;3.53;;;;;;;-2.02;80.89;102606.13;5081873;28;20505;-24
2022/02/12 06:10:15;;;;;;;7.95;3.55;;;;;;;-2.03;80.41;102593.97;5080798;28;20028;-24
2022/02/12 06:12:41;;;;;;;4.50;3.42;;;;;;;-2.04;80.29;102606.81;5079371;28;20028;-24
2022/02/12 06:15:08;;;;;;;6.55;3.47;;;;;;;-2.07;80.51;102602.28;5077163;28;20032;-24
2022/02/12 06:17:33;;;;;;;5.50;3.20;;;;;;;-2.09;80.42;102603.88;5077929;28;20034;-25
2022/02/12 06:19:59;;;;;;;6.65;3.67;;;;;;;-2.10;80.83;102602.94;5078467;28;20406;-24
2022/02/12 06:22:26;;;;;;;5.72;2.97;;;;;;;-2.11;80.46;102608.00;5075377;28;20459;-23
2022/02/12 06:24:52;;;;;;;6.38;4.07;;;;;;;-2.13;80.41;102594.97;5076862;28;20028;-24
2022/02/12 06:27:18;;;;;;;6.03;4.30;;;;;;;-2.14;80.58;102592.28;5075934;28;20047;-24
2022/02/12 06:29:44;;;;;;;8.02;4.45;;;;;;;-2.14;80.79;102589.72;5076380;28;20027;-24
2022/02/12 06:32:09;;;;;;;8.02;5.18;;;;;;;-2.16;80.58;102599.03;5077313;28;20024;-24
2022/02/12 06:34:34;;;;;;;11.35;5.88;;;;;;;-2.19;80.71;102598.00;5081452;28;20032;-25
2022/02/12 06:37:01;;;;;;;9.27;5.57;;;;;;;-2.20;80.27;102603.94;5081937;28;20039;-23
2022/02/12 06:39:27;;;;;;;9.00;5.93;;;;;;;-2.21;80.62;102602.16;5077466;28;20055;-25
2022/02/12 06:41:52;;;;;;;10.32;6.07;;;;;;;-2.22;80.69;102595.19;5067610;28;20021;-24
2022/02/12 06:44:18;;;;;;;11.18;6.72;;;;;;;-2.24;80.54;102596.75;5079930;28;20101;-22
2022/02/12 06:46:43;;;;;;;9.00;5.50;;;;;;;-2.25;80.89;102594.97;5078683;28;20390;-25
2022/02/12 06:49:08;;;;;;;8.88;5.57;;;;;;;-2.26;80.43;102588.00;5078486;28;20029;-24
2022/02/12 06:51:34;;;;;;;9.45;6.50;;;;;;;-2.29;80.62;102585.19;5080792;28;20112;-24
2022/02/12 06:53:59;;;;;;;9.10;5.40;;;;;;;-2.28;80.36;102597.31;5077864;28;20385;-24
2022/02/12 06:56:24;;;;;;;9.82;5.28;;;;;;;-2.29;80.77;102590.34;5077981;28;20531;-24
2022/02/12 06:58:50;;;;;;;7.60;4.97;;;;;;;-2.29;80.62;102599.78;5080306;28;20073;-23
2022/02/12 07:01:15;;;;;;;9.65;5.75;;;;;;;-2.32;80.85;102600.47;5079072;28;20043;-23
2022/02/12 07:03:40;;;;;;;8.10;5.32;;;;;;;-2.34;80.58;102599.44;5077840;28;20119;-25
2022/02/12 07:06:06;;;;;;;7.18;5.38;;;;;;;-2.34;80.27;102595.16;5080694;28;20051;-23
2022/02/12 07:08:31;;;;;;;11.45;6.20;;;;;;;-2.34;80.94;102605.50;5079159;28;20028;-22
2022/02/12 07:10:56;;;;;;;9.02;5.72;;;;;;;-2.39;80.87;102591.34;5080064;28;20035;-24
2022/02/12 07:13:22;;;;;;;7.57;5.30;;;;;;;-2.40;80.57;102596.41;5079552;28;20038;-24
2022/02/12 07:15:47;;;;;;;8.07;5.80;;;;;;;-2.36;80.93;102611.34;5075089;28;20038;-22
2022/02/12 07:18:12;;;;;;;10.73;6.18;;;;;;;-2.39;80.49;102603.38;5080195;28;20369;-25
2022/02/12 07:20:38;;;;;;;7.80;6.20;;;;;;;-2.36;81.00;102607.09;5074779;28;20081;-24
2022/02/12 07:23:03;;;;;;;11.73;6.32;;;;;;;-2.37;80.48;102607.84;5078307;28;20478;-23
2022/02/12 07:25:29;;;;;;;13.65;7.68;;;;;;;-2.37;80.79;102604.41;5079783;28;20031;-24
2022/02/12 07:27:55;;;;;;;8.80;6.55;;;;;;;-2.37;81.16;102607.84;5077884;28;20044;-24
2022/02/12 07:30:22;;;;;;;11.80;7.35;;;;;;;-2.36;81.29;102611.34;5078531;28;20073;-24
2022/02/12 07:32:48;;;;;;;13.07;7.47;;;;;;;-2.38;81.40;102611.25;5082042;28;20039;-24
2022/02/12 07:35:14;;;;;;;10.82;7.47;;;;;;;-2.36;81.04;102616.53;5079493;28;20021;-24
2022/02/12 07:37:41;;;;;;;12.55;7.43;;;;;;;-2.36;81.03;102619.09;5075834;28;20077;-25
2022/02/12 07:40:07;;;;;;;9.82;6.65;;;;;;;-2.35;81.57;102610.56;5075562;28;20171;-25
2022/02/12 07:42:33;;;;;;;12.77;7.18;;;;;;;-2.34;81.15;102607.19;5074181;28;20405;-24
2022/02/12 07:44:58;;;;;;;11.95;7.70;;;;;;;-2.35;81.28;102602.81;5079048;28;20081;-23
2022/02/12 07:47:23;;;;;;;10.48;6.60;;;;;;;-2.33;81.32;102607.31;5076740;28;20028;-23
2022/02/12 07:49:49;;;;;;;12.05;7.32;;;;;;;-2.32;81.14;102609.13;5075490;28;20020;-25
2022/02/12 07:52:14;;;;;;;10.68;7.05;;;;;;;-2.30;81.09;102606.66;5080313;28;20028;-23
2022/02/12 07:54:40;;;;;;;9.20;6.57;;;;;;;-2.27;81.26;102616.31;5074727;28;20027;-25
2022/02/12 07:57:05;;;;;;;10.48;7.03;;;;;;;-2.29;81.09;102592.94;5075035;28;20032;-25
2022/02/12 07:59:31;;;;;;;15.57;6.80;;;;;;;-2.26;81.33;102598.34;5076737;28;20035;-24
2022/02/12 08:01:56;;;;;;;9.02;5.97;;;;;;;-2.24;81.21;102594.16;5078256;28;20414;-24
2022/02/12 08:04:21;;;;;;;9.70;6.70;;;;;;;-2.17;82.12;102599.81;5076384;28;20027;-23
2022/02/12 08:09:31;;;;;;;8.95;6.38;;;;;;;-2.12;82.81;102599.38;5078624;28;20042;-24
2022/02/12 08:12:19;;;;;;;11.60;6.13;;;;;;;-2.08;82.41;102601.41;5076546;28;20027;-25
2022/02/12 08:14:46;;;;;;;9.68;6.63;;;;;;;-2.01;82.27;102613.09;5078692;28;20379;-25
2022/02/12 08:17:11;;;;;;;11.60;6.30;;;;;;;-1.97;82.35;102599.59;5075182;28;20028;-24
2022/02/12 08:19:37;;;;;;;9.10;6.20;;;;;;;-1.94;81.70;102599.81;5078134;28;20028;-24
2022/02/12 08:22:04;;;;;;;11.65;6.90;;;;;;;-1.89;81.76;102602.75;5075630;28;20020;-24
2022/02/12 08:24:30;;;;;;;9.15;6.38;;;;;;;-1.83;82.18;102610.06;5074621;28;20367;-24
2022/02/12 08:26:55;;;;;;;8.77;5.68;;;;;;;-1.81;81.37;102601.63;5074930;28;20031;-25
2022/02/12 08:29:21;;;;;;;9.35;5.97;;;;;;;-1.73;81.29;102609.91;5079168;28;20116;-24
2022/02/12 08:31:46;;;;;;;9.32;5.80;;;;;;;-1.68;81.00;102606.00;5075534;28;20028;-23
2022/02/12 08:34:13;;;;;;;7.70;5.28;;;;;;;-1.62;81.14;102607.22;5074370;28;20149;-21
2022/02/12 08:36:39;;;;;;;8.63;5.90;;;;;;;-1.57;80.38;102608.47;5057071;28;20573;-24
2022/02/12 08:39:04;;;;;;;8.20;5.80;;;;;;;-1.57;80.45;102590.34;5077176;28;20027;-25
2022/02/12 08:41:29;;;;;;;11.48;6.32;;;;;;;-1.47;80.75;102597.97;5073949;28;20024;-25
2022/02/12 08:43:55;;;;;;;10.23;6.70;;;;;;;-1.43;80.90;102597.41;5077508;28;20091;-25
2022/02/12 08:46:20;;;;;;;8.10;5.13;;;;;;;-1.36;80.83;102596.16;5077362;28;20036;-23
2022/02/12 08:48:46;;;;;;;8.35;6.07;;;;;;;-1.31;80.33;102599.06;5079742;28;20033;-25
2022/02/12 08:51:11;;;;;;;8.27;5.38;;;;;;;-1.27;80.77;102603.66;5077296;28;20051;-25
2022/02/12 08:53:37;;;;;;;8.85;5.65;;;;;;;-1.20;80.33;102603.31;5078902;28;20183;-25
2022/02/12 08:56:02;;;;;;;7.70;5.65;;;;;;;-1.15;80.36;102606.22;5074296;28;20028;-25
2022/02/12 08:58:28;;;;;;;9.32;5.30;;;;;;;-1.09;80.17;102596.31;5075440;28;20054;-25
2022/02/12 09:00:53;;;;;;;8.48;5.28;;;;;;;-1.02;80.52;102610.59;5076445;28;20375;-23
2022/02/12 09:03:19;;;;;;;10.23;5.25;;;;;;;-0.96;80.37;102597.16;5076323;28;20038;-25
2022/02/12 09:05:44;;;;;;;9.25;5.50;;;;;;;-0.88;80.72;102600.25;5080311;28;20024;-25
2022/02/12 09:08:11;;;;;;;8.77;5.15;;;;;;;-0.82;79.93;102603.28;5079499;28;20023;-24
2022/02/12 09:10:36;;;;;;;6.78;5.10;;;;;;;-0.74;79.90;102609.00;5083047;28;20138;-21
2022/02/12 09:13:02;;;;;;;6.72;4.85;;;;;;;-0.68;80.29;102594.78;5078752;28;20496;-24
2022/02/12 09:15:27;;;;;;;8.73;5.70;;;;;;;-0.62;79.66;102596.88;5082763;28;20039;-25
2022/02/12 09:17:53;;;;;;;6.90;5.40;;;;;;;-0.56;80.31;102601.59;5082868;28;20032;-24
2022/02/12 09:20:18;;;;;;;9.48;5.15;;;;;;;-0.49;80.05;102584.75;5082657;28;20033;-24
2022/02/12 09:22:44;;;;;;;7.80;4.57;;;;;;;-0.40;80.13;102591.44;5082677;28;20482;-25
2022/02/12 09:25:09;;;;;;;6.45;4.72;;;;;;;-0.29;79.89;102588.69;5079749;28;20025;-25
2022/02/12 09:27:35;;;;;;;9.38;5.07;;;;;;;-0.26;79.90;102581.09;5081762;28;20111;-25
2022/02/12 09:30:02;;;;;;;6.15;4.63;;;;;;;-0.18;79.85;102576.41;5081962;28;20015;-24
2022/02/12 09:32:28;;;;;;;8.27;4.72;;;;;;;-0.10;79.59;102569.16;5079920;28;20047;-25
2022/02/12 09:34:53;;;;;;;9.88;5.15;;;;;;;-0.02;79.79;102567.94;5080558;28;20028;-24
2022/02/12 09:37:19;;;;;;;7.00;5.18;;;;;;;0.03;79.38;102569.13;5079225;28;20039;-24
2022/02/12 09:39:44;;;;;;;9.13;4.40;;;;;;;0.11;79.44;102569.66;5083664;28;20059;-25
2022/02/12 09:42:10;;;;;;;6.90;4.25;;;;;;;0.19;79.55;102563.25;5080892;28;20051;-24
2022/02/12 09:44:38;;;;;;;7.95;5.28;;;;;;;0.26;79.27;102561.94;5080070;28;20027;-24
2022/02/12 09:47:34;;;;;;;5.40;4.15;;;;;;;0.33;79.45;102560.66;5083256;28;20617;-25
2022/02/12 09:50:00;;;;;;;7.05;4.75;;;;;;;0.41;79.33;102548.13;5078958;28;20029;-24
2022/02/12 09:52:30;;;;;;;5.10;4.38;;;;;;;0.51;79.48;102560.91;5078884;28;20030;-23
2022/02/12 09:54:57;;;;;;;6.20;4.35;;;;;;;0.58;79.27;102559.59;5076563;28;20024;-23
2022/02/12 09:57:22;;;;;;;10.57;4.32;;;;;;;0.66;79.96;102558.34;5079282;28;20494;-24
2022/02/12 09:59:48;;;;;;;8.90;4.30;;;;;;;0.74;79.53;102558.84;5079391;28;20097;-22
2022/02/12 10:02:17;;;;;;;9.32;4.68;;;;;;;0.80;79.90;102554.00;5077246;28;20023;-24
2022/02/12 10:04:42;;;;;;;5.57;3.58;;;;;;;0.88;79.93;102558.00;5082642;28;20024;-23
2022/02/12 10:07:21;;;;;;;5.05;3.58;;;;;;;0.97;79.73;102556.78;5081586;28;20036;-24
2022/02/12 10:09:46;;;;;;;10.70;3.83;;;;;;;1.05;79.61;102559.81;5079211;28;20071;-21
2022/02/12 10:12:21;;;;;;;7.75;4.18;;;;;;;1.13;79.75;102559.47;5078851;28;20510;-24
2022/02/12 10:14:47;;;;;;;9.02;3.92;;;;;;;1.19;79.85;102558.03;5081330;28;20094;-25
2022/02/12 10:17:15;;;;;;;4.95;3.25;;;;;;;1.30;79.43;102558.72;5082264;28;20424;-25
2022/02/12 10:19:45;;;;;;;10.95;4.10;;;;;;;1.36;79.96;102554.75;5081796;28;20047;-24
2022/02/12 10:22:17;;;;;;;6.72;3.60;;;;;;;1.45;79.26;102556.09;5081301;28;20099;-25
2022/02/12 10:24:48;;;;;;;7.57;4.10;;;;;;;1.54;79.57;102551.47;5080269;28;20619;-24
2022/02/12 10:27:14;;;;;;;6.22;3.80;;;;;;;1.61;79.40;102553.63;5078558;28;20123;-24
2022/02/12 10:29:39;;;;;;;8.40;3.72;;;;;;;1.66;79.62;102541.75;5081044;28;20885;-24
2022/02/12 10:32:05;;;;;;;6.25;3.78;;;;;;;1.73;79.45;102553.41;5081937;28;20467;-24
2022/02/12 10:34:43;;;;;;;4.13;3.47;;;;;;;1.82;79.29;102536.53;5077767;28;20103;-24
2022/02/12 10:37:13;;;;;;;6.50;3.90;;;;;;;1.88;78.94;102526.47;5082993;28;20027;-24
2022/02/12 10:39:52;;;;;;;6.72;3.83;;;;;;;1.94;79.11;102521.63;5082242;28;20016;-24
2022/02/12 10:42:17;;;;;;;6.35;4.00;;;;;;;2.01;78.87;102513.38;5077633;28;20399;-23
2022/02/12 10:44:44;;;;;;;8.02;4.10;;;;;;;2.07;78.85;102507.59;5078166;28;20031;-24
2022/02/12 10:47:11;;;;;;;6.53;3.55;;;;;;;2.13;78.62;102505.31;5082177;28;20111;-24
2022/02/12 10:49:37;;;;;;;7.40;3.22;;;;;;;2.21;78.79;102499.66;5082564;28;20102;-22
2022/02/12 10:52:02;;;;;;;7.93;4.00;;;;;;;2.26;78.70;102503.38;5080228;28;21022;-24
2022/02/12 10:54:28;;;;;;;6.35;3.55;;;;;;;2.34;78.66;102501.22;5080462;28;20047;-24
2022/02/12 10:56:54;;;;;;;6.10;3.53;;;;;;;2.39;78.93;102490.22;5080315;28;20494;-24
2022/02/12 10:59:21;;;;;;;10.43;3.75;;;;;;;2.53;78.54;102488.38;5079359;28;20043;-24
2022/02/12 11:01:48;;;;;;;5.18;3.13;;;;;;;2.58;78.54;102496.44;5079398;28;20028;-24
2022/02/12 11:04:18;;;;;;;5.65;2.72;;;;;;;2.61;78.40;102482.66;5079641;28;20440;-24
2022/02/12 11:06:48;;;;;;;6.60;3.38;;;;;;;2.69;78.29;102482.28;5081103;28;20027;-25
2022/02/12 11:09:14;;;;;;;8.63;2.97;;;;;;;2.77;78.10;102481.78;5079698;28;20043;-24
2022/02/12 11:11:40;;;;;;;6.82;2.95;;;;;;;2.83;78.11;102471.66;5082549;28;20017;-24
2022/02/12 11:14:08;;;;;;;9.75;3.03;;;;;;;2.85;77.67;102458.72;5079903;28;20024;-24
2022/02/12 11:16:35;;;;;;;6.13;2.40;;;;;;;2.87;78.00;102450.16;5082888;28;20039;-24
2022/02/12 11:19:01;;;;;;;4.65;2.28;;;;;;;2.91;77.34;102443.41;5075764;28;20062;-24
2022/02/12 11:21:28;;;;;;;8.38;2.63;;;;;;;2.99;76.92;102441.16;5078880;28;20030;-23
2022/02/12 11:24:01;;;;;;;5.05;2.50;;;;;;;3.02;77.22;102446.53;5077627;28;20032;-24
2022/02/12 11:26:27;;;;;;;3.78;1.70;;;;;;;3.09;76.63;102438.22;5082371;28;20034;-23
2022/02/12 11:28:52;;;;;;;3.88;2.95;;;;;;;3.17;76.69;102436.88;5079940;28;20028;-24
2022/02/12 11:31:24;;;;;;;5.13;2.10;;;;;;;3.24;76.66;102438.09;5052516;28;20024;-24